createdAt,value
2022-08-29T00:00:54.135Z,101075.84
2022-08-29T00:03:58.035Z,101081.47
2022-08-29T00:06:59.778Z,101071.78
2022-08-29T00:10:01.616Z,101071.78
2022-08-29T00:13:05.489Z,101071.66
2022-08-29T00:16:08.587Z,101072.84
2022-08-29T00:19:10.389Z,101064.25
2022-08-29T00:22:12.062Z,101061.66
2022-08-29T00:25:14.469Z,101061.06
2022-08-29T00:28:16.372Z,101061.38
2022-08-29T00:31:18.227Z,101056.47
2022-08-29T00:34:19.997Z,101061.19
2022-08-29T00:37:21.697Z,101061.66
2022-08-29T00:40:31.485Z,101062.75
2022-08-29T00:43:36.223Z,101060.28
2022-08-29T00:46:50.859Z,101065.91
2022-08-29T00:49:55.782Z,101065.22
2022-08-29T00:52:59.292Z,101060.91
2022-08-29T00:56:03.793Z,101068.25
2022-08-29T00:59:26.015Z,101069.31
2022-08-29T01:02:29.488Z,101062.22
2022-08-29T01:05:32.003Z,101072.25
2022-08-29T01:08:33.839Z,101062.56
2022-08-29T01:11:54.743Z,101065.38
2022-08-29T01:15:01.265Z,101066.34
2022-08-29T01:18:06.283Z,101066.66
2022-08-29T01:21:14.245Z,101062.25
2022-08-29T01:24:15.929Z,101065.19
2022-08-29T01:27:20.882Z,101061.50
2022-08-29T01:30:22.809Z,101057.19
2022-08-29T01:33:24.577Z,101063.56
2022-08-29T01:36:33.287Z,101061.81
2022-08-29T01:39:45.225Z,101060.97
2022-08-29T01:42:49.356Z,101064.31
2022-08-29T01:45:51.151Z,101058.19
2022-08-29T01:48:53.432Z,101060.97
2022-08-29T01:51:55.185Z,101064.41
2022-08-29T01:54:56.875Z,101069.69
2022-08-29T01:57:58.580Z,101065.28
2022-08-29T02:01:00.324Z,101064.53
2022-08-29T02:04:02.256Z,101062.59
2022-08-29T02:07:04.028Z,101060.13
2022-08-29T02:10:07.050Z,101065.50
2022-08-29T02:13:08.748Z,101068.50
2022-08-29T02:16:10.459Z,101069.50
2022-08-29T02:19:12.221Z,101065.94
2022-08-29T02:22:14.279Z,101073.25
2022-08-29T02:25:34.577Z,101072.28
2022-08-29T02:28:37.835Z,101075.09
2022-08-29T02:31:40.935Z,101074.13
2022-08-29T02:34:44.665Z,101072.59
2022-08-29T02:37:49.482Z,101068.97
2022-08-29T02:40:51.684Z,101067.22
2022-08-29T02:43:53.485Z,101067.22
2022-08-29T02:46:55.332Z,101070.91
2022-08-29T02:49:57.143Z,101071.66
2022-08-29T02:53:01.460Z,101078.75
2022-08-29T02:56:03.509Z,101071.34
2022-08-29T02:59:05.504Z,101068.41
2022-08-29T03:02:07.625Z,101065.59
2022-08-29T03:05:10.129Z,101064.66
2022-08-29T03:08:16.272Z,101065.72
2022-08-29T03:13:06.792Z,101060.56
2022-08-29T03:15:19.975Z,101057.13
2022-08-29T03:18:22.067Z,101060.38
2022-08-29T03:22:22.082Z,101061.75
2022-08-29T03:35:44.710Z,101053.44
2022-08-29T03:49:29.121Z,101042.56
2022-08-29T03:51:38.366Z,101050.94
2022-08-29T03:55:35.699Z,101051.22
2022-08-29T04:03:30.908Z,101052.09
2022-08-29T04:06:40.267Z,101053.50
2022-08-29T04:09:47.357Z,101057.56
2022-08-29T04:12:54.258Z,101064.22
2022-08-29T04:15:56.665Z,101057.50
2022-08-29T04:18:58.950Z,101066.09
2022-08-29T04:22:01.014Z,101060.25
2022-08-29T04:25:04.781Z,101061.63
2022-08-29T04:28:11.982Z,101060.41
2022-08-29T04:31:23.045Z,101061.78
2022-08-29T04:34:26.042Z,101061.56
2022-08-29T04:37:32.882Z,101069.63
2022-08-29T04:40:38.217Z,101069.75
2022-08-29T04:43:42.896Z,101071.47
2022-08-29T04:46:44.690Z,101073.22
2022-08-29T04:49:46.426Z,101083.63
2022-08-29T04:52:48.904Z,101078.63
2022-08-29T04:56:06.518Z,101077.19
2022-08-29T04:59:23.055Z,101075.75
2022-08-29T05:02:25.668Z,101069.28
2022-08-29T05:05:27.936Z,101071.50
2022-08-29T05:08:30.092Z,101073.50
2022-08-29T05:11:32.833Z,101088.97
2022-08-29T05:14:35.095Z,101088.25
2022-08-29T05:17:37.168Z,101085.94
2022-08-29T05:20:43.839Z,101079.81
2022-08-29T05:23:45.570Z,101078.25
2022-08-29T05:26:47.268Z,101078.25
2022-08-29T05:29:51.445Z,101075.31
2022-08-29T05:32:55.008Z,101083.28
2022-08-29T05:35:57.565Z,101078.84
2022-08-29T05:39:01.106Z,101078.22
2022-08-29T05:42:03.329Z,101088.03
2022-08-29T05:45:05.995Z,101084.44
2022-08-29T05:48:09.591Z,101086.34
2022-08-29T05:51:19.562Z,101088.31
2022-08-29T05:54:21.606Z,101091.22
2022-08-29T05:57:25.856Z,101094.16
2022-08-29T06:00:27.771Z,101088.84
2022-08-29T06:03:29.567Z,101085.75
2022-08-29T06:06:31.424Z,101098.50
2022-08-29T06:09:33.381Z,101094.41
2022-08-29T06:12:36.016Z,101091.31
2022-08-29T06:15:37.980Z,101100.88
2022-08-29T06:18:40.739Z,101097.91
2022-08-29T06:21:42.417Z,101103.06
2022-08-29T06:24:45.334Z,101104.78
2022-08-29T06:27:48.924Z,101102.41
2022-08-29T06:30:50.684Z,101103.72
2022-08-29T06:33:54.696Z,101107.00
2022-08-29T06:36:56.634Z,101108.59
2022-08-29T06:39:58.387Z,101121.63
2022-08-29T06:43:00.111Z,101125.25
2022-08-29T06:46:01.988Z,101125.88
2022-08-29T06:49:05.516Z,101131.06
2022-08-29T06:52:07.215Z,101126.63
2022-08-29T06:55:12.912Z,101135.66
2022-08-29T06:58:18.807Z,101121.84
2022-08-29T07:01:21.761Z,101115.56
2022-08-29T07:04:26.611Z,101127.53
2022-08-29T07:07:28.642Z,101121.38
2022-08-29T07:10:35.654Z,101131.81
2022-08-29T07:13:37.399Z,101133.97
2022-08-29T07:16:41.107Z,101128.88
2022-08-29T07:19:42.970Z,101128.31
2022-08-29T07:22:47.522Z,101120.91
2022-08-29T07:25:49.249Z,101123.09
2022-08-29T07:28:54.013Z,101129.41
2022-08-29T07:31:55.898Z,101119.28
2022-08-29T07:34:57.915Z,101124.84
2022-08-29T07:38:01.443Z,101123.09
2022-08-29T07:41:08.850Z,101124.22
2022-08-29T07:44:11.667Z,101127.34
2022-08-29T07:47:13.375Z,101119.72
2022-08-29T07:50:15.114Z,101126.69
2022-08-29T07:53:17.636Z,101121.38
2022-08-29T07:56:25.203Z,101130.69
2022-08-29T07:59:27.110Z,101134.97
2022-08-29T08:02:29.029Z,101131.19
2022-08-29T08:05:33.761Z,101129.28
2022-08-29T08:08:35.626Z,101134.66
2022-08-29T08:11:43.683Z,101134.16
2022-08-29T08:14:57.032Z,101132.53
2022-08-29T08:17:58.772Z,101131.53
2022-08-29T08:21:00.419Z,101144.97
2022-08-29T08:24:02.587Z,101143.88
2022-08-29T08:27:04.796Z,101141.53
2022-08-29T08:30:07.197Z,101143.97
2022-08-29T08:33:09.957Z,101141.31
2022-08-29T08:36:30.949Z,101138.06
2022-08-29T08:39:32.649Z,101147.66
2022-08-29T08:42:42.583Z,101152.63
2022-08-29T08:45:46.413Z,101149.06
2022-08-29T08:48:49.749Z,101149.66
2022-08-29T08:51:59.862Z,101156.97
2022-08-29T08:55:07.412Z,101151.97
2022-08-29T08:58:29.342Z,101151.28
2022-08-29T09:01:43.404Z,101148.13
2022-08-29T09:05:20.477Z,101158.44
2022-08-29T09:08:58.678Z,101154.72
2022-08-29T09:12:06.835Z,101163.16
2022-08-29T09:15:20.257Z,101162.91
2022-08-29T09:18:32.349Z,101160.78
2022-08-29T09:21:48.643Z,101168.06
2022-08-29T09:25:04.038Z,101169.94
2022-08-29T09:28:07.932Z,101172.78
2022-08-29T09:31:28.511Z,101169.22
2022-08-29T09:34:57.416Z,101171.22
2022-08-29T09:38:25.789Z,101176.94
2022-08-29T09:41:31.164Z,101171.63
2022-08-29T09:44:35.435Z,101174.56
2022-08-29T09:47:37.329Z,101172.28
2022-08-29T09:50:39.679Z,101167.69
2022-08-29T09:53:42.844Z,101172.31
2022-08-29T09:56:59.668Z,101174.25
2022-08-29T10:00:12.431Z,101176.44
2022-08-29T10:03:22.879Z,101174.44
2022-08-29T10:06:32.591Z,101168.41
2022-08-29T10:09:34.901Z,101181.50
2022-08-29T10:13:15.206Z,101177.44
2022-08-29T10:16:27.237Z,101177.97
2022-08-29T10:19:34.289Z,101184.63
2022-08-29T10:22:44.162Z,101189.75
2022-08-29T10:25:46.329Z,101182.81
2022-08-29T10:29:16.123Z,101184.72
2022-08-29T10:32:49.264Z,101186.25
2022-08-29T10:36:09.693Z,101177.72
2022-08-29T10:39:17.921Z,101177.06
2022-08-29T10:42:25.488Z,101177.66
2022-08-29T10:46:00.218Z,101171.41
2022-08-29T10:49:23.052Z,101168.63
2022-08-29T10:53:06.298Z,101168.25
2022-08-29T10:56:18.957Z,101161.75
2022-08-29T10:59:58.267Z,101158.00
2022-08-29T11:03:36.204Z,101158.84
2022-08-29T11:06:43.925Z,101147.19
2022-08-29T11:09:52.122Z,101160.38
2022-08-29T11:13:01.411Z,101153.97
2022-08-29T11:16:08.659Z,101162.31
2022-08-29T11:19:27.408Z,101150.78
2022-08-29T11:22:37.979Z,101157.59
2022-08-29T11:25:42.017Z,101155.44
2022-08-29T11:29:10.154Z,101166.84
2022-08-29T11:32:38.874Z,101164.63
2022-08-29T11:35:49.592Z,101163.44
2022-08-29T11:39:20.157Z,101159.34
2022-08-29T11:46:01.630Z,101163.06
2022-08-29T11:49:32.084Z,101170.41
2022-08-29T11:52:35.274Z,101172.84
2022-08-29T11:55:43.243Z,101171.84
2022-08-29T11:58:50.233Z,101173.22
2022-08-29T12:02:01.074Z,101166.41
2022-08-29T12:05:02.751Z,101162.31
2022-08-29T12:08:36.440Z,101154.94
2022-08-29T12:12:02.759Z,101145.56
2022-08-29T12:15:26.415Z,101150.28
2022-08-29T12:18:36.646Z,101147.31
2022-08-29T12:21:39.254Z,101146.47
2022-08-29T12:24:43.141Z,101140.28
2022-08-29T12:28:07.084Z,101145.53
2022-08-29T12:32:08.614Z,101130.13
2022-08-29T12:35:31.339Z,101128.94
2022-08-29T12:42:41.695Z,101114.16
2022-08-29T12:45:50.644Z,101120.53
2022-08-29T12:49:24.156Z,101114.56
2022-08-29T12:52:30.502Z,101109.09
2022-08-29T12:55:42.135Z,101110.47
2022-08-29T12:58:47.152Z,101112.16
2022-08-29T13:01:56.105Z,101104.16
2022-08-29T13:04:59.545Z,101104.72
2022-08-29T13:08:11.078Z,101095.81
2022-08-29T13:11:21.450Z,101095.34
2022-08-29T13:14:23.791Z,101091.56
2022-08-29T13:17:37.276Z,101093.63
2022-08-29T13:20:40.235Z,101082.91
2022-08-29T13:23:45.965Z,101080.44
2022-08-29T13:27:05.575Z,101075.44
2022-08-29T13:30:08.469Z,101076.28
2022-08-29T13:33:35.162Z,101065.53
2022-08-29T13:37:10.608Z,101070.19
2022-08-29T13:40:44.935Z,101072.38
2022-08-29T13:43:48.996Z,101059.16
2022-08-29T13:46:52.639Z,101052.47
2022-08-29T13:49:59.887Z,101051.91
2022-08-29T13:53:01.567Z,101050.38
2022-08-29T13:56:04.094Z,101048.16
2022-08-29T13:59:06.744Z,101046.59
2022-08-29T14:02:10.043Z,101038.88
2022-08-29T14:05:13.711Z,101045.69
2022-08-29T14:08:15.956Z,101039.00
2022-08-29T14:11:18.061Z,101028.78
2022-08-29T14:14:19.995Z,101036.84
2022-08-29T14:17:23.660Z,101037.75
2022-08-29T14:20:25.722Z,101039.69
2022-08-29T14:23:27.807Z,101039.38
2022-08-29T14:26:29.464Z,101034.91
2022-08-29T14:29:32.325Z,101038.81
2022-08-29T14:32:34.111Z,101036.19
2022-08-29T14:35:36.248Z,101028.53
2022-08-29T14:38:44.091Z,101027.13
2022-08-29T14:41:46.190Z,101024.91
2022-08-29T14:44:48.053Z,101028.34
2022-08-29T14:47:49.728Z,101032.19
2022-08-29T14:50:51.408Z,101032.44
2022-08-29T14:53:54.476Z,101031.44
2022-08-29T14:56:56.498Z,101031.81
2022-08-29T14:59:58.187Z,101034.69
2022-08-29T15:03:00.323Z,101028.50
2022-08-29T15:06:05.264Z,101030.91
2022-08-29T15:09:07.060Z,101025.78
2022-08-29T15:12:08.893Z,101024.25
2022-08-29T15:15:11.469Z,101020.66
2022-08-29T15:18:30.528Z,101014.88
2022-08-29T15:21:36.081Z,101008.03
2022-08-29T15:24:39.642Z,101008.03
2022-08-29T15:27:41.910Z,101013.00
2022-08-29T15:30:43.629Z,101007.34
2022-08-29T15:33:45.329Z,101010.75
2022-08-29T15:36:46.983Z,101009.59
2022-08-29T15:39:50.608Z,101015.59
2022-08-29T15:42:56.338Z,101015.66
2022-08-29T15:45:59.810Z,101018.91
2022-08-29T15:49:01.917Z,101016.88
2022-08-29T15:52:03.770Z,101017.75
2022-08-29T15:55:06.384Z,101008.50
2022-08-29T15:58:08.090Z,101016.72
2022-08-29T16:01:10.861Z,101012.09
2022-08-29T16:04:15.076Z,101009.34
2022-08-29T16:07:18.049Z,101006.81
2022-08-29T16:10:19.854Z,101014.50
2022-08-29T16:13:21.654Z,101011.97
2022-08-29T16:16:24.409Z,101007.69
2022-08-29T16:19:26.169Z,101008.22
2022-08-29T16:22:28.503Z,101004.44
2022-08-29T16:25:31.904Z,101003.25
2022-08-29T16:28:33.807Z,101002.03
2022-08-29T16:31:36.128Z,100997.25
2022-08-29T16:34:38.401Z,100993.00
2022-08-29T16:37:40.525Z,100996.56
2022-08-29T16:40:42.250Z,100992.66
2022-08-29T16:43:49.731Z,100991.16
2022-08-29T16:46:51.907Z,100981.94
2022-08-29T16:49:53.736Z,100988.09
2022-08-29T16:52:55.983Z,100986.25
2022-08-29T16:55:58.054Z,100992.75
2022-08-29T16:59:00.219Z,100982.00
2022-08-29T17:02:02.500Z,100989.03
2022-08-29T17:05:04.786Z,100984.59
2022-08-29T17:08:06.425Z,100987.69
2022-08-29T17:11:08.172Z,100985.84
2022-08-29T17:14:10.679Z,100988.22
2022-08-29T17:17:12.313Z,100980.41
2022-08-29T17:20:15.036Z,100979.03
2022-08-29T17:23:16.670Z,100987.88
2022-08-29T17:26:19.059Z,100982.91
2022-08-29T17:29:20.706Z,100981.88
2022-08-29T17:32:22.977Z,100986.31
2022-08-29T17:35:24.687Z,100980.00
2022-08-29T17:38:26.629Z,100985.97
2022-08-29T17:41:28.272Z,100992.25
2022-08-29T17:44:34.965Z,100994.63
2022-08-29T17:47:37.042Z,100997.16
2022-08-29T17:50:39.141Z,100990.16
2022-08-29T17:53:40.935Z,100991.69
2022-08-29T17:57:01.318Z,101000.84
2022-08-29T18:00:05.588Z,100997.53
2022-08-29T18:03:12.315Z,100990.34
2022-08-29T18:06:15.228Z,100992.19
2022-08-29T18:09:17.215Z,100992.63
2022-08-29T18:12:20.339Z,100996.16
2022-08-29T18:15:22.320Z,100995.56
2022-08-29T18:18:25.386Z,100997.56
2022-08-29T18:21:29.492Z,100998.16
2022-08-29T18:24:31.213Z,101016.41
2022-08-29T18:27:33.797Z,101013.09
2022-08-29T18:30:35.682Z,101007.56
2022-08-29T18:33:59.102Z,101020.56
2022-08-29T18:36:59.079Z,101015.69
2022-08-29T18:40:00.757Z,101030.06
2022-08-29T18:43:02.578Z,101025.84
2022-08-29T18:46:04.597Z,101015.34
2022-08-29T18:49:06.741Z,101026.25
2022-08-29T18:52:09.496Z,101030.16
2022-08-29T18:55:15.721Z,101038.22
2022-08-29T18:58:19.142Z,101046.56
2022-08-29T19:01:27.622Z,101045.75
2022-08-29T19:04:29.807Z,101047.91
2022-08-29T19:07:31.532Z,101048.66
2022-08-29T19:10:33.353Z,101051.97
2022-08-29T19:13:35.406Z,101057.41
2022-08-29T19:16:37.381Z,101061.56
2022-08-29T19:19:57.688Z,101063.16
2022-08-29T19:22:59.580Z,101068.44
2022-08-29T19:26:03.440Z,101070.03
2022-08-29T19:29:14.059Z,101072.28
2022-08-29T19:32:15.767Z,101069.00
2022-08-29T19:35:18.274Z,101075.69
2022-08-29T19:38:22.981Z,101075.28
2022-08-29T19:41:25.233Z,101085.00
2022-08-29T19:44:27.013Z,101084.81
2022-08-29T19:47:29.280Z,101086.41
2022-08-29T19:50:31.058Z,101086.94
2022-08-29T19:53:32.761Z,101086.78
2022-08-29T19:56:37.212Z,101085.63
2022-08-29T19:59:39.527Z,101095.19
2022-08-29T20:02:45.821Z,101095.59
2022-08-29T20:05:48.717Z,101097.13
2022-08-29T20:08:50.656Z,101104.69
2022-08-29T20:11:53.532Z,101104.25
2022-08-29T20:14:56.463Z,101106.78
2022-08-29T20:17:59.949Z,101110.72
2022-08-29T20:21:01.696Z,101112.97
2022-08-29T20:24:04.539Z,101119.78
2022-08-29T20:27:07.535Z,101129.88
2022-08-29T20:30:13.620Z,101126.84
2022-08-29T20:33:15.691Z,101123.00
2022-08-29T20:36:38.985Z,101122.38
2022-08-29T20:39:46.765Z,101129.91
2022-08-29T20:42:48.469Z,101142.84
2022-08-29T20:45:50.642Z,101149.84
2022-08-29T20:48:52.379Z,101151.69
2022-08-29T20:51:54.088Z,101150.00
2022-08-29T20:54:55.807Z,101161.56
2022-08-29T20:57:57.555Z,101172.38
2022-08-29T21:01:00.585Z,101170.53
2022-08-29T21:04:23.384Z,101177.63
2022-08-29T21:07:26.101Z,101179.75
2022-08-29T21:10:28.847Z,101182.59
2022-08-29T21:13:30.905Z,101186.28
2022-08-29T21:16:32.643Z,101180.72
2022-08-29T21:19:34.647Z,101183.44
2022-08-29T21:22:36.262Z,101184.31
2022-08-29T21:25:40.192Z,101183.59
2022-08-29T21:28:44.372Z,101178.19
2022-08-29T21:31:50.981Z,101180.88
2022-08-29T21:34:52.699Z,101184.97
2022-08-29T21:37:54.355Z,101185.84
2022-08-29T21:40:58.717Z,101185.94
2022-08-29T21:44:00.357Z,101181.53
2022-08-29T21:47:02.912Z,101183.97
2022-08-29T21:50:05.946Z,101188.28
2022-08-29T21:53:07.680Z,101188.53
2022-08-29T21:56:09.412Z,101192.63
2022-08-29T21:59:12.404Z,101184.91
2022-08-29T22:02:15.135Z,101191.56
2022-08-29T22:05:17.161Z,101188.63
2022-08-29T22:08:20.978Z,101189.03
2022-08-29T22:11:38.013Z,101183.88
2022-08-29T22:14:58.371Z,101180.97
2022-08-29T22:18:00.136Z,101181.72
2022-08-29T22:21:02.422Z,101186.66
2022-08-29T22:24:04.842Z,101185.31
2022-08-29T22:27:07.511Z,101177.97
2022-08-29T22:30:09.957Z,101179.56
2022-08-29T22:33:16.524Z,101184.50
2022-08-29T22:36:19.679Z,101182.16
2022-08-29T22:39:21.575Z,101186.13
2022-08-29T22:42:23.772Z,101189.28
2022-08-29T22:45:26.105Z,101191.41
2022-08-29T22:48:27.881Z,101194.22
2022-08-29T22:51:29.690Z,101191.78
2022-08-29T22:54:37.191Z,101200.38
2022-08-29T22:57:39.687Z,101199.50
2022-08-29T23:00:41.464Z,101198.78
2022-08-29T23:03:43.118Z,101193.13
2022-08-29T23:06:44.912Z,101195.97
2022-08-29T23:09:46.815Z,101190.91
2022-08-29T23:12:50.569Z,101194.72
2022-08-29T23:15:52.444Z,101187.22
2022-08-29T23:18:54.241Z,101182.94
2022-08-29T23:21:55.909Z,101181.34
2022-08-29T23:24:59.122Z,101187.84
2022-08-29T23:28:01.163Z,101187.34
2022-08-29T23:31:03.652Z,101185.63
2022-08-29T23:34:05.491Z,101189.81
2022-08-29T23:37:07.543Z,101189.31
2022-08-29T23:40:09.769Z,101192.09
2022-08-29T23:43:11.788Z,101195.06
2022-08-29T23:46:13.981Z,101192.47
2022-08-29T23:49:15.764Z,101199.09
2022-08-29T23:52:18.022Z,101194.41
2022-08-29T23:55:19.756Z,101194.91
2022-08-29T23:58:21.527Z,101192.53
